sensor_id;sensor_type;location;lat;lon;timestamp;P1;durP1;ratioP1;P2;durP2;ratioP2
22359;SDS011;11347;52.030;4.690;2023-07-20T08:30:42;1.30;;;1.00;;
22359;SDS011;11347;52.030;4.690;2023-07-20T08:33:09;2.57;;;1.00;;
22359;SDS011;11347;52.030;4.690;2023-07-20T08:35:35;3.90;;;1.20;;
22359;SDS011;11347;52.030;4.690;2023-07-20T08:38:01;3.00;;;1.10;;
22359;SDS011;11347;52.030;4.690;2023-07-20T08:40:27;2.60;;;1.10;;
22359;SDS011;11347;52.030;4.690;2023-07-20T08:42:53;2.87;;;1.10;;
22359;SDS011;11347;52.030;4.690;2023-07-20T08:45:20;2.23;;;1.23;;
22359;SDS011;11347;52.030;4.690;2023-07-20T08:47:50;2.20;;;1.23;;
22359;SDS011;11347;52.030;4.690;2023-07-20T08:50:15;2.93;;;1.20;;
22359;SDS011;11347;52.030;4.690;2023-07-20T08:52:41;2.73;;;1.00;;
22359;SDS011;11347;52.030;4.690;2023-07-20T08:55:07;1.50;;;0.63;;
22359;SDS011;11347;52.030;4.690;2023-07-20T08:57:33;1.50;;;0.80;;
22359;SDS011;11347;52.030;4.690;2023-07-20T09:00:02;3.73;;;1.00;;
22359;SDS011;11347;52.030;4.690;2023-07-20T09:02:35;2.80;;;0.90;;
22359;SDS011;11347;52.030;4.690;2023-07-20T09:05:05;1.17;;;0.70;;
22359;SDS011;11347;52.030;4.690;2023-07-20T09:07:32;1.30;;;0.73;;
22359;SDS011;11347;52.030;4.690;2023-07-20T09:10:00;3.73;;;0.80;;
22359;SDS011;11347;52.030;4.690;2023-07-20T09:12:30;1.20;;;0.63;;
22359;SDS011;11347;52.030;4.690;2023-07-20T09:15:03;1.00;;;0.70;;
22359;SDS011;11347;52.030;4.690;2023-07-20T09:17:30;2.20;;;0.70;;
22359;SDS011;11347;52.030;4.690;2023-07-20T09:19:56;2.23;;;0.70;;
22359;SDS011;11347;52.030;4.690;2023-07-20T09:22:21;1.00;;;0.60;;
22359;SDS011;11347;52.030;4.690;2023-07-20T09:24:47;1.87;;;0.80;;
22359;SDS011;11347;52.030;4.690;2023-07-20T09:27:13;1.67;;;0.70;;
22359;SDS011;11347;52.030;4.690;2023-07-20T09:29:51;1.80;;;0.80;;
22359;SDS011;11347;52.030;4.690;2023-07-20T09:32:20;2.80;;;0.80;;
22359;SDS011;11347;52.030;4.690;2023-07-20T09:34:47;2.10;;;0.77;;
22359;SDS011;11347;52.030;4.690;2023-07-20T09:37:14;1.73;;;0.63;;
22359;SDS011;11347;52.030;4.690;2023-07-20T09:39:48;3.50;;;0.50;;
22359;SDS011;11347;52.030;4.690;2023-07-20T09:42:17;2.22;;;0.70;;
22359;SDS011;11347;52.030;4.690;2023-07-20T09:44:43;1.67;;;0.70;;
22359;SDS011;11347;52.030;4.690;2023-07-20T09:47:10;0.63;;;0.60;;
22359;SDS011;11347;52.030;4.690;2023-07-20T09:49:39;1.17;;;0.60;;
22359;SDS011;11347;52.030;4.690;2023-07-20T09:52:06;2.37;;;0.70;;
22359;SDS011;11347;52.030;4.690;2023-07-20T09:54:34;3.13;;;0.77;;
22359;SDS011;11347;52.030;4.690;2023-07-20T09:57:02;1.50;;;0.60;;
22359;SDS011;11347;52.030;4.690;2023-07-20T09:59:28;1.47;;;0.73;;
22359;SDS011;11347;52.030;4.690;2023-07-20T10:01:54;1.83;;;0.90;;
22359;SDS011;11347;52.030;4.690;2023-07-20T10:04:24;2.30;;;0.90;;
22359;SDS011;11347;52.030;4.690;2023-07-20T10:06:51;1.37;;;0.67;;
22359;SDS011;11347;52.030;4.690;2023-07-20T10:09:20;1.83;;;0.63;;
22359;SDS011;11347;52.030;4.690;2023-07-20T10:11:49;0.77;;;0.70;;
22359;SDS011;11347;52.030;4.690;2023-07-20T10:14:16;1.20;;;0.67;;
22359;SDS011;11347;52.030;4.690;2023-07-20T10:16:51;1.27;;;0.68;;
22359;SDS011;11347;52.030;4.690;2023-07-20T10:19:23;3.05;;;0.90;;
22359;SDS011;11347;52.030;4.690;2023-07-20T10:21:56;2.22;;;0.93;;
22359;SDS011;11347;52.030;4.690;2023-07-20T10:24:26;2.03;;;0.80;;
22359;SDS011;11347;52.030;4.690;2023-07-20T10:26:53;2.45;;;0.80;;
22359;SDS011;11347;52.030;4.690;2023-07-20T10:29:20;2.75;;;0.80;;
22359;SDS011;11347;52.030;4.690;2023-07-20T10:31:46;1.73;;;0.70;;
22359;SDS011;11347;52.030;4.690;2023-07-20T10:34:13;3.17;;;0.80;;
22359;SDS011;11347;52.030;4.690;2023-07-20T10:36:45;2.40;;;0.90;;
22359;SDS011;11347;52.030;4.690;2023-07-20T10:44:29;1.60;;;0.70;;
22359;SDS011;11347;52.030;4.690;2023-07-20T10:46:59;1.58;;;0.60;;
22359;SDS011;11347;52.030;4.690;2023-07-20T10:49:33;2.17;;;0.70;;
22359;SDS011;11347;52.030;4.690;2023-07-20T10:52:00;2.40;;;0.80;;
22359;SDS011;11347;52.030;4.690;2023-07-20T10:56:56;2.55;;;0.73;;
22359;SDS011;11347;52.030;4.690;2023-07-20T11:01:48;1.33;;;0.60;;
22359;SDS011;11347;52.030;4.690;2023-07-20T11:04:14;1.13;;;0.60;;
22359;SDS011;11347;52.030;4.690;2023-07-20T11:06:45;1.73;;;0.70;;
22359;SDS011;11347;52.030;4.690;2023-07-20T11:09:12;3.20;;;0.70;;
22359;SDS011;11347;52.030;4.690;2023-07-20T11:11:40;1.88;;;0.80;;
22359;SDS011;11347;52.030;4.690;2023-07-20T11:14:08;2.15;;;0.70;;
22359;SDS011;11347;52.030;4.690;2023-07-20T11:16:45;1.92;;;0.80;;
22359;SDS011;11347;52.030;4.690;2023-07-20T11:19:16;1.48;;;0.73;;
22359;SDS011;11347;52.030;4.690;2023-07-20T11:21:44;1.95;;;0.77;;
22359;SDS011;11347;52.030;4.690;2023-07-20T11:24:12;1.73;;;0.70;;
22359;SDS011;11347;52.030;4.690;2023-07-20T11:27:11;1.97;;;0.80;;
22359;SDS011;11347;52.030;4.690;2023-07-20T11:29:30;2.35;;;0.82;;
22359;SDS011;11347;52.030;4.690;2023-07-20T11:31:56;1.02;;;0.70;;
22359;SDS011;11347;52.030;4.690;2023-07-20T11:34:23;2.75;;;0.70;;
22359;SDS011;11347;52.030;4.690;2023-07-20T11:36:50;1.20;;;0.50;;
22359;SDS011;11347;52.030;4.690;2023-07-20T11:39:17;1.67;;;0.60;;
22359;SDS011;11347;52.030;4.690;2023-07-20T11:41:50;1.50;;;0.60;;
22359;SDS011;11347;52.030;4.690;2023-07-20T11:44:17;1.08;;;0.57;;
22359;SDS011;11347;52.030;4.690;2023-07-20T11:46:44;1.30;;;0.50;;
22359;SDS011;11347;52.030;4.690;2023-07-20T11:49:10;1.10;;;0.53;;
22359;SDS011;11347;52.030;4.690;2023-07-20T11:51:36;1.60;;;0.50;;
22359;SDS011;11347;52.030;4.690;2023-07-20T11:54:03;3.33;;;1.60;;
22359;SDS011;11347;52.030;4.690;2023-07-20T11:56:33;2.63;;;0.80;;
22359;SDS011;11347;52.030;4.690;2023-07-20T11:58:59;1.63;;;0.60;;
22359;SDS011;11347;52.030;4.690;2023-07-20T12:01:27;1.10;;;0.50;;
22359;SDS011;11347;52.030;4.690;2023-07-20T12:04:00;1.00;;;0.40;;
22359;SDS011;11347;52.030;4.690;2023-07-20T12:06:28;0.70;;;0.50;;
22359;SDS011;11347;52.030;4.690;2023-07-20T12:08:54;1.00;;;0.50;;
22359;SDS011;11347;52.030;4.690;2023-07-20T12:11:57;2.40;;;0.57;;
22359;SDS011;11347;52.030;4.690;2023-07-20T12:14:15;1.05;;;0.50;;
22359;SDS011;11347;52.030;4.690;2023-07-20T12:16:42;1.00;;;0.50;;
22359;SDS011;11347;52.030;4.690;2023-07-20T12:19:11;0.83;;;0.43;;
22359;SDS011;11347;52.030;4.690;2023-07-20T12:21:38;1.20;;;0.50;;
22359;SDS011;11347;52.030;4.690;2023-07-20T12:24:07;0.90;;;0.50;;
22359;SDS011;11347;52.030;4.690;2023-07-20T12:26:36;1.10;;;0.50;;
22359;SDS011;11347;52.030;4.690;2023-07-20T12:29:02;1.25;;;0.45;;
22359;SDS011;11347;52.030;4.690;2023-07-20T12:31:28;0.88;;;0.45;;
22359;SDS011;11347;52.030;4.690;2023-07-20T12:33:54;1.30;;;0.50;;
22359;SDS011;11347;52.030;4.690;2023-07-20T12:36:21;1.58;;;0.43;;
22359;SDS011;11347;52.030;4.690;2023-07-20T12:38:47;0.70;;;0.50;;
22359;SDS011;11347;52.030;4.690;2023-07-20T12:41:13;1.50;;;0.50;;
22359;SDS011;11347;52.030;4.690;2023-07-20T12:43:39;0.88;;;0.52;;
22359;SDS011;11347;52.030;4.690;2023-07-20T12:46:09;0.90;;;0.50;;
22359;SDS011;11347;52.030;4.690;2023-07-20T12:48:37;1.20;;;0.60;;
22359;SDS011;11347;52.030;4.690;2023-07-20T12:51:03;1.80;;;0.60;;
22359;SDS011;11347;52.030;4.690;2023-07-20T12:53:29;2.28;;;0.55;;
22359;SDS011;11347;52.030;4.690;2023-07-20T12:55:56;0.97;;;0.50;;
22359;SDS011;11347;52.030;4.690;2023-07-20T12:58:22;1.40;;;0.50;;
22359;SDS011;11347;52.030;4.690;2023-07-20T13:00:48;1.13;;;0.50;;
22359;SDS011;11347;52.030;4.690;2023-07-20T13:03:14;2.03;;;0.50;;
22359;SDS011;11347;52.030;4.690;2023-07-20T13:05:41;0.80;;;0.50;;
22359;SDS011;11347;52.030;4.690;2023-07-20T13:08:06;0.98;;;0.50;;
22359;SDS011;11347;52.030;4.690;2023-07-20T13:10:32;1.13;;;0.40;;
22359;SDS011;11347;52.030;4.690;2023-07-20T13:12:58;0.83;;;0.40;;
22359;SDS011;11347;52.030;4.690;2023-07-20T13:15:28;1.20;;;0.50;;
22359;SDS011;11347;52.030;4.690;2023-07-20T13:17:56;0.93;;;0.60;;
22359;SDS011;11347;52.030;4.690;2023-07-20T13:20:22;0.70;;;0.47;;
22359;SDS011;11347;52.030;4.690;2023-07-20T13:22:48;1.85;;;0.90;;
22359;SDS011;11347;52.030;4.690;2023-07-20T13:25:14;1.05;;;0.60;;
22359;SDS011;11347;52.030;4.690;2023-07-20T13:27:39;1.70;;;0.50;;
22359;SDS011;11347;52.030;4.690;2023-07-20T13:30:05;1.97;;;0.53;;
22359;SDS011;11347;52.030;4.690;2023-07-20T13:32:32;0.63;;;0.50;;
22359;SDS011;11347;52.030;4.690;2023-07-20T13:34:59;0.75;;;0.50;;
22359;SDS011;11347;52.030;4.690;2023-07-20T13:37:24;3.17;;;0.53;;
22359;SDS011;11347;52.030;4.690;2023-07-20T13:39:52;2.53;;;0.50;;
22359;SDS011;11347;52.030;4.690;2023-07-20T13:42:17;1.23;;;0.50;;
22359;SDS011;11347;52.030;4.690;2023-07-20T13:44:43;1.13;;;0.50;;
22359;SDS011;11347;52.030;4.690;2023-07-20T13:47:08;0.60;;;0.30;;
22359;SDS011;11347;52.030;4.690;2023-07-20T13:49:34;0.63;;;0.40;;
22359;SDS011;11347;52.030;4.690;2023-07-20T13:51:59;0.40;;;0.40;;
22359;SDS011;11347;52.030;4.690;2023-07-20T13:54:25;0.80;;;0.40;;
22359;SDS011;11347;52.030;4.690;2023-07-20T13:56:51;0.73;;;0.40;;
22359;SDS011;11347;52.030;4.690;2023-07-20T13:59:17;0.90;;;0.43;;
22359;SDS011;11347;52.030;4.690;2023-07-20T14:01:43;0.60;;;0.40;;
22359;SDS011;11347;52.030;4.690;2023-07-20T14:04:08;3.28;;;0.80;;
22359;SDS011;11347;52.030;4.690;2023-07-20T14:06:34;1.40;;;0.47;;
22359;SDS011;11347;52.030;4.690;2023-07-20T14:09:00;0.77;;;0.60;;
22359;SDS011;11347;52.030;4.690;2023-07-20T14:11:27;2.43;;;0.80;;
22359;SDS011;11347;52.030;4.690;2023-07-20T14:13:52;0.60;;;0.40;;
22359;SDS011;11347;52.030;4.690;2023-07-20T14:16:19;1.57;;;0.50;;
22359;SDS011;11347;52.030;4.690;2023-07-20T14:18:47;1.47;;;0.50;;
22359;SDS011;11347;52.030;4.690;2023-07-20T14:21:14;1.80;;;0.50;;
22359;SDS011;11347;52.030;4.690;2023-07-20T14:23:40;1.60;;;0.50;;
22359;SDS011;11347;52.030;4.690;2023-07-20T14:26:06;1.50;;;0.63;;
22359;SDS011;11347;52.030;4.690;2023-07-20T14:28:32;2.07;;;0.50;;
22359;SDS011;11347;52.030;4.690;2023-07-20T14:30:58;1.77;;;0.40;;
22359;SDS011;11347;52.030;4.690;2023-07-20T14:33:23;0.60;;;0.40;;
22359;SDS011;11347;52.030;4.690;2023-07-20T14:35:49;0.70;;;0.40;;
22359;SDS011;11347;52.030;4.690;2023-07-20T14:38:15;2.80;;;0.50;;
22359;SDS011;11347;52.030;4.690;2023-07-20T14:40:40;0.77;;;0.50;;
22359;SDS011;11347;52.030;4.690;2023-07-20T14:43:06;0.50;;;0.30;;
22359;SDS011;11347;52.030;4.690;2023-07-20T14:45:32;0.50;;;0.37;;
22359;SDS011;11347;52.030;4.690;2023-07-20T14:47:57;0.43;;;0.40;;
22359;SDS011;11347;52.030;4.690;2023-07-20T14:50:23;2.90;;;0.90;;
22359;SDS011;11347;52.030;4.690;2023-07-20T14:52:49;0.30;;;0.30;;
22359;SDS011;11347;52.030;4.690;2023-07-20T14:55:14;0.40;;;0.33;;
22359;SDS011;11347;52.030;4.690;2023-07-20T14:57:40;0.60;;;0.30;;
22359;SDS011;11347;52.030;4.690;2023-07-20T15:00:06;1.03;;;0.40;;
22359;SDS011;11347;52.030;4.690;2023-07-20T15:02:35;0.60;;;0.30;;
22359;SDS011;11347;52.030;4.690;2023-07-20T15:05:07;1.17;;;0.30;;
22359;SDS011;11347;52.030;4.690;2023-07-20T15:07:34;1.03;;;0.40;;
22359;SDS011;11347;52.030;4.690;2023-07-20T15:10:00;2.83;;;0.30;;
22359;SDS011;11347;52.030;4.690;2023-07-20T15:12:26;2.33;;;0.40;;
22359;SDS011;11347;52.030;4.690;2023-07-20T15:15:05;0.50;;;0.50;;
22359;SDS011;11347;52.030;4.690;2023-07-20T15:17:33;0.70;;;0.30;;
22359;SDS011;11347;52.030;4.690;2023-07-20T15:20:01;0.40;;;0.30;;
22359;SDS011;11347;52.030;4.690;2023-07-20T15:22:29;0.77;;;0.33;;
22359;SDS011;11347;52.030;4.690;2023-07-20T15:24:58;0.73;;;0.30;;
22359;SDS011;11347;52.030;4.690;2023-07-20T15:27:23;0.60;;;0.47;;
22359;SDS011;11347;52.030;4.690;2023-07-20T15:29:49;0.57;;;0.40;;
22359;SDS011;11347;52.030;4.690;2023-07-20T15:32:15;0.53;;;0.23;;
22359;SDS011;11347;52.030;4.690;2023-07-20T15:34:42;0.57;;;0.37;;
22359;SDS011;11347;52.030;4.690;2023-07-20T15:37:08;0.63;;;0.37;;
22359;SDS011;11347;52.030;4.690;2023-07-20T15:39:35;0.97;;;0.30;;
22359;SDS011;11347;52.030;4.690;2023-07-20T15:42:01;1.80;;;0.50;;
22359;SDS011;11347;52.030;4.690;2023-07-20T15:44:26;1.40;;;0.53;;
22359;SDS011;11347;52.030;4.690;2023-07-20T15:46:52;1.90;;;0.40;;
22359;SDS011;11347;52.030;4.690;2023-07-20T15:49:18;2.13;;;0.63;;
22359;SDS011;11347;52.030;4.690;2023-07-20T15:51:44;1.37;;;0.50;;
22359;SDS011;11347;52.030;4.690;2023-07-20T15:54:11;1.63;;;0.50;;
22359;SDS011;11347;52.030;4.690;2023-07-20T15:56:37;1.07;;;0.40;;
22359;SDS011;11347;52.030;4.690;2023-07-20T15:59:03;1.60;;;1.00;;
22359;SDS011;11347;52.030;4.690;2023-07-20T16:01:29;0.60;;;0.50;;
22359;SDS011;11347;52.030;4.690;2023-07-20T16:03:56;0.20;;;0.20;;
22359;SDS011;11347;52.030;4.690;2023-07-20T16:06:22;1.37;;;0.30;;
22359;SDS011;11347;52.030;4.690;2023-07-20T16:08:47;1.40;;;0.47;;
22359;SDS011;11347;52.030;4.690;2023-07-20T16:11:15;0.90;;;0.47;;
22359;SDS011;11347;52.030;4.690;2023-07-20T16:13:41;1.10;;;0.40;;
22359;SDS011;11347;52.030;4.690;2023-07-20T16:16:08;0.80;;;0.47;;
22359;SDS011;11347;52.030;4.690;2023-07-20T16:18:33;2.37;;;0.50;;
22359;SDS011;11347;52.030;4.690;2023-07-20T16:20:59;0.90;;;0.50;;
22359;SDS011;11347;52.030;4.690;2023-07-20T16:23:25;0.93;;;0.30;;
22359;SDS011;11347;52.030;4.690;2023-07-20T16:25:50;1.57;;;0.50;;
22359;SDS011;11347;52.030;4.690;2023-07-20T16:28:17;1.73;;;0.50;;
22359;SDS011;11347;52.030;4.690;2023-07-20T16:30:42;0.90;;;0.50;;
22359;SDS011;11347;52.030;4.690;2023-07-20T16:33:08;1.63;;;0.40;;
22359;SDS011;11347;52.030;4.690;2023-07-20T16:35:37;1.93;;;0.40;;
22359;SDS011;11347;52.030;4.690;2023-07-20T16:38:03;0.30;;;0.30;;
22359;SDS011;11347;52.030;4.690;2023-07-20T16:40:29;1.17;;;0.60;;
22359;SDS011;11347;52.030;4.690;2023-07-20T16:42:54;2.83;;;0.50;;
22359;SDS011;11347;52.030;4.690;2023-07-20T16:45:20;1.37;;;0.60;;
22359;SDS011;11347;52.030;4.690;2023-07-20T16:47:46;0.67;;;0.40;;
22359;SDS011;11347;52.030;4.690;2023-07-20T16:50:12;0.93;;;0.40;;
22359;SDS011;11347;52.030;4.690;2023-07-20T16:52:37;0.60;;;0.30;;
22359;SDS011;11347;52.030;4.690;2023-07-20T16:55:03;1.33;;;0.50;;
22359;SDS011;11347;52.030;4.690;2023-07-20T16:57:29;0.63;;;0.40;;
22359;SDS011;11347;52.030;4.690;2023-07-20T16:59:54;0.40;;;0.40;;
22359;SDS011;11347;52.030;4.690;2023-07-20T17:02:20;1.00;;;0.77;;
22359;SDS011;11347;52.030;4.690;2023-07-20T17:04:48;1.63;;;0.33;;
22359;SDS011;11347;52.030;4.690;2023-07-20T17:07:14;1.90;;;0.57;;
22359;SDS011;11347;52.030;4.690;2023-07-20T17:09:40;0.93;;;0.40;;
22359;SDS011;11347;52.030;4.690;2023-07-20T17:12:06;0.97;;;0.50;;
22359;SDS011;11347;52.030;4.690;2023-07-20T17:14:33;3.43;;;0.50;;
22359;SDS011;11347;52.030;4.690;2023-07-20T17:16:59;0.83;;;0.43;;
22359;SDS011;11347;52.030;4.690;2023-07-20T17:19:25;1.30;;;0.50;;
22359;SDS011;11347;52.030;4.690;2023-07-20T17:21:50;2.97;;;0.50;;
22359;SDS011;11347;52.030;4.690;2023-07-20T17:24:16;0.63;;;0.30;;
22359;SDS011;11347;52.030;4.690;2023-07-20T17:26:42;1.00;;;0.50;;
22359;SDS011;11347;52.030;4.690;2023-07-20T17:29:07;0.90;;;0.40;;
22359;SDS011;11347;52.030;4.690;2023-07-20T17:31:33;1.23;;;0.40;;
22359;SDS011;11347;52.030;4.690;2023-07-20T17:33:59;0.63;;;0.50;;
22359;SDS011;11347;52.030;4.690;2023-07-20T17:36:25;1.17;;;0.40;;
22359;SDS011;11347;52.030;4.690;2023-07-20T17:38:50;1.07;;;0.40;;
22359;SDS011;11347;52.030;4.690;2023-07-20T17:41:16;1.27;;;0.40;;
22359;SDS011;11347;52.030;4.690;2023-07-20T17:43:42;0.67;;;0.40;;
22359;SDS011;11347;52.030;4.690;2023-07-20T17:46:07;0.50;;;0.40;;
22359;SDS011;11347;52.030;4.690;2023-07-20T17:48:33;0.47;;;0.40;;
22359;SDS011;11347;52.030;4.690;2023-07-20T17:50:58;0.60;;;0.50;;
22359;SDS011;11347;52.030;4.690;2023-07-20T17:53:24;0.83;;;0.50;;
22359;SDS011;11347;52.030;4.690;2023-07-20T17:55:51;1.17;;;0.40;;
22359;SDS011;11347;52.030;4.690;2023-07-20T17:58:16;0.93;;;0.60;;
22359;SDS011;11347;52.030;4.690;2023-07-20T18:00:42;1.93;;;0.60;;
22359;SDS011;11347;52.030;4.690;2023-07-20T18:03:08;0.97;;;0.70;;
22359;SDS011;11347;52.030;4.690;2023-07-20T18:05:33;1.27;;;0.50;;
22359;SDS011;11347;52.030;4.690;2023-07-20T18:07:59;1.73;;;0.50;;
22359;SDS011;11347;52.030;4.690;2023-07-20T18:10:24;2.23;;;0.50;;
22359;SDS011;11347;52.030;4.690;2023-07-20T18:12:50;1.37;;;0.60;;
22359;SDS011;11347;52.030;4.690;2023-07-20T18:15:17;2.50;;;0.77;;
22359;SDS011;11347;52.030;4.690;2023-07-20T18:17:42;0.93;;;0.30;;
22359;SDS011;11347;52.030;4.690;2023-07-20T18:20:08;1.23;;;0.60;;
22359;SDS011;11347;52.030;4.690;2023-07-20T18:22:34;0.80;;;0.43;;
22359;SDS011;11347;52.030;4.690;2023-07-20T18:25:00;1.40;;;0.50;;
22359;SDS011;11347;52.030;4.690;2023-07-20T18:27:26;0.90;;;0.50;;
22359;SDS011;11347;52.030;4.690;2023-07-20T18:29:52;0.37;;;0.30;;
22359;SDS011;11347;52.030;4.690;2023-07-20T18:32:18;1.57;;;0.50;;
22359;SDS011;11347;52.030;4.690;2023-07-20T18:34:44;0.70;;;0.40;;
22359;SDS011;11347;52.030;4.690;2023-07-20T18:37:10;1.20;;;0.50;;
22359;SDS011;11347;52.030;4.690;2023-07-20T18:39:36;2.27;;;0.60;;
22359;SDS011;11347;52.030;4.690;2023-07-20T18:42:02;3.83;;;0.50;;
22359;SDS011;11347;52.030;4.690;2023-07-20T18:44:28;2.50;;;0.60;;
22359;SDS011;11347;52.030;4.690;2023-07-20T18:46:54;0.50;;;0.50;;
22359;SDS011;11347;52.030;4.690;2023-07-20T18:49:21;0.90;;;0.50;;
22359;SDS011;11347;52.030;4.690;2023-07-20T18:51:47;1.07;;;0.60;;
22359;SDS011;11347;52.030;4.690;2023-07-20T18:54:13;0.50;;;0.40;;
22359;SDS011;11347;52.030;4.690;2023-07-20T18:56:41;1.50;;;0.40;;
22359;SDS011;11347;52.030;4.690;2023-07-20T18:59:06;1.27;;;0.53;;
22359;SDS011;11347;52.030;4.690;2023-07-20T19:01:32;0.60;;;0.50;;
22359;SDS011;11347;52.030;4.690;2023-07-20T19:03:57;3.60;;;0.77;;
22359;SDS011;11347;52.030;4.690;2023-07-20T19:06:23;2.60;;;0.77;;
22359;SDS011;11347;52.030;4.690;2023-07-20T19:08:49;2.60;;;0.50;;
22359;SDS011;11347;52.030;4.690;2023-07-20T19:11:14;1.73;;;0.60;;
22359;SDS011;11347;52.030;4.690;2023-07-20T19:13:40;2.00;;;0.50;;
22359;SDS011;11347;52.030;4.690;2023-07-20T19:16:05;1.70;;;0.60;;
22359;SDS011;11347;52.030;4.690;2023-07-20T19:18:32;1.87;;;0.73;;
22359;SDS011;11347;52.030;4.690;2023-07-20T19:21:03;1.57;;;0.67;;
22359;SDS011;11347;52.030;4.690;2023-07-20T19:23:29;3.63;;;0.80;;
22359;SDS011;11347;52.030;4.690;2023-07-20T19:25:55;2.60;;;0.80;;
22359;SDS011;11347;52.030;4.690;2023-07-20T19:28:21;1.00;;;0.73;;
22359;SDS011;11347;52.030;4.690;2023-07-20T19:30:48;3.07;;;0.63;;
22359;SDS011;11347;52.030;4.690;2023-07-20T19:33:13;1.80;;;0.70;;
22359;SDS011;11347;52.030;4.690;2023-07-20T19:35:39;1.57;;;0.53;;
22359;SDS011;11347;52.030;4.690;2023-07-20T19:38:05;2.70;;;0.80;;
22359;SDS011;11347;52.030;4.690;2023-07-20T19:40:31;1.30;;;0.60;;
22359;SDS011;11347;52.030;4.690;2023-07-20T19:42:58;0.90;;;0.80;;
22359;SDS011;11347;52.030;4.690;2023-07-20T19:45:25;1.00;;;0.50;;
22359;SDS011;11347;52.030;4.690;2023-07-20T19:47:51;1.23;;;0.90;;
22359;SDS011;11347;52.030;4.690;2023-07-20T19:50:16;1.27;;;0.70;;
22359;SDS011;11347;52.030;4.690;2023-07-20T19:52:42;2.43;;;0.83;;
22359;SDS011;11347;52.030;4.690;2023-07-20T19:55:11;1.10;;;0.60;;
22359;SDS011;11347;52.030;4.690;2023-07-20T19:57:37;1.73;;;0.80;;
22359;SDS011;11347;52.030;4.690;2023-07-20T20:00:03;2.30;;;0.67;;
22359;SDS011;11347;52.030;4.690;2023-07-20T20:02:37;1.33;;;0.73;;
22359;SDS011;11347;52.030;4.690;2023-07-20T20:05:04;1.23;;;0.80;;
22359;SDS011;11347;52.030;4.690;2023-07-20T20:07:31;0.83;;;0.80;;
22359;SDS011;11347;52.030;4.690;2023-07-20T20:09:59;1.63;;;1.00;;
22359;SDS011;11347;52.030;4.690;2023-07-20T20:12:25;1.30;;;0.90;;
22359;SDS011;11347;52.030;4.690;2023-07-20T20:14:51;2.53;;;1.10;;
22359;SDS011;11347;52.030;4.690;2023-07-20T20:17:16;3.07;;;0.80;;
22359;SDS011;11347;52.030;4.690;2023-07-20T20:19:42;1.80;;;1.00;;
22359;SDS011;11347;52.030;4.690;2023-07-20T20:22:08;2.97;;;0.90;;
22359;SDS011;11347;52.030;4.690;2023-07-20T20:24:33;2.50;;;1.00;;
22359;SDS011;11347;52.030;4.690;2023-07-20T20:26:59;3.90;;;0.90;;
22359;SDS011;11347;52.030;4.690;2023-07-20T20:29:24;2.37;;;1.10;;
22359;SDS011;11347;52.030;4.690;2023-07-20T20:31:50;1.57;;;1.00;;
22359;SDS011;11347;52.030;4.690;2023-07-20T20:34:15;1.70;;;0.87;;
22359;SDS011;11347;52.030;4.690;2023-07-20T20:36:41;1.27;;;1.03;;
22359;SDS011;11347;52.030;4.690;2023-07-20T20:39:08;2.97;;;1.10;;
22359;SDS011;11347;52.030;4.690;2023-07-20T20:41:33;4.27;;;1.50;;
22359;SDS011;11347;52.030;4.690;2023-07-20T20:44:09;3.00;;;1.30;;
22359;SDS011;11347;52.030;4.690;2023-07-20T20:46:39;4.47;;;1.60;;
22359;SDS011;11347;52.030;4.690;2023-07-20T20:49:11;2.83;;;1.27;;
22359;SDS011;11347;52.030;4.690;2023-07-20T20:51:37;2.50;;;1.13;;
22359;SDS011;11347;52.030;4.690;2023-07-20T20:54:02;3.63;;;1.20;;
22359;SDS011;11347;52.030;4.690;2023-07-20T20:56:29;3.00;;;1.20;;
22359;SDS011;11347;52.030;4.690;2023-07-20T20:58:55;2.37;;;1.00;;
22359;SDS011;11347;52.030;4.690;2023-07-20T21:01:20;2.53;;;1.30;;
22359;SDS011;11347;52.030;4.690;2023-07-20T21:03:48;3.47;;;1.03;;
22359;SDS011;11347;52.030;4.690;2023-07-20T21:06:13;2.30;;;1.03;;
22359;SDS011;11347;52.030;4.690;2023-07-20T21:08:39;3.87;;;1.10;;
22359;SDS011;11347;52.030;4.690;2023-07-20T21:11:04;2.53;;;1.17;;
22359;SDS011;11347;52.030;4.690;2023-07-20T21:13:30;3.70;;;1.40;;
22359;SDS011;11347;52.030;4.690;2023-07-20T21:15:56;1.53;;;1.10;;
22359;SDS011;11347;52.030;4.690;2023-07-20T21:18:22;1.70;;;1.17;;
22359;SDS011;11347;52.030;4.690;2023-07-20T21:20:47;2.97;;;1.00;;
22359;SDS011;11347;52.030;4.690;2023-07-20T21:23:13;2.43;;;1.30;;
22359;SDS011;11347;52.030;4.690;2023-07-20T21:25:39;3.93;;;1.23;;
22359;SDS011;11347;52.030;4.690;2023-07-20T21:28:05;2.80;;;1.17;;
22359;SDS011;11347;52.030;4.690;2023-07-20T21:30:30;1.93;;;1.23;;
22359;SDS011;11347;52.030;4.690;2023-07-20T21:32:56;2.07;;;1.20;;
22359;SDS011;11347;52.030;4.690;2023-07-20T21:35:22;2.57;;;1.40;;
22359;SDS011;11347;52.030;4.690;2023-07-20T21:37:48;3.30;;;1.13;;
22359;SDS011;11347;52.030;4.690;2023-07-20T21:40:15;3.07;;;1.30;;
22359;SDS011;11347;52.030;4.690;2023-07-20T21:42:41;2.00;;;1.40;;
22359;SDS011;11347;52.030;4.690;2023-07-20T21:45:07;2.77;;;1.20;;
22359;SDS011;11347;52.030;4.690;2023-07-20T21:47:33;1.50;;;1.10;;
22359;SDS011;11347;52.030;4.690;2023-07-20T21:49:59;2.90;;;1.23;;
22359;SDS011;11347;52.030;4.690;2023-07-20T21:52:24;4.10;;;1.30;;
22359;SDS011;11347;52.030;4.690;2023-07-20T21:54:50;2.70;;;1.23;;
22359;SDS011;11347;52.030;4.690;2023-07-20T21:57:17;1.93;;;1.27;;
22359;SDS011;11347;52.030;4.690;2023-07-20T21:59:43;4.13;;;1.47;;
22359;SDS011;11347;52.030;4.690;2023-07-20T22:02:09;2.63;;;1.60;;
22359;SDS011;11347;52.030;4.690;2023-07-20T22:04:35;2.17;;;1.50;;
22359;SDS011;11347;52.030;4.690;2023-07-20T22:07:01;2.57;;;1.40;;
22359;SDS011;11347;52.030;4.690;2023-07-20T22:09:27;2.87;;;1.50;;
22359;SDS011;11347;52.030;4.690;2023-07-20T22:11:53;3.83;;;1.50;;
22359;SDS011;11347;52.030;4.690;2023-07-20T22:14:19;2.37;;;1.40;;
22359;SDS011;11347;52.030;4.690;2023-07-20T22:16:45;4.00;;;1.60;;
22359;SDS011;11347;52.030;4.690;2023-07-20T22:19:11;3.27;;;1.50;;
22359;SDS011;11347;52.030;4.690;2023-07-20T22:21:37;4.80;;;1.50;;
22359;SDS011;11347;52.030;4.690;2023-07-20T22:24:04;3.90;;;1.53;;
22359;SDS011;11347;52.030;4.690;2023-07-20T22:26:31;3.60;;;1.60;;
22359;SDS011;11347;52.030;4.690;2023-07-20T22:28:56;3.97;;;1.50;;
22359;SDS011;11347;52.030;4.690;2023-07-20T22:31:22;8.50;;;1.73;;
22359;SDS011;11347;52.030;4.690;2023-07-20T22:33:47;2.60;;;1.80;;
22359;SDS011;11347;52.030;4.690;2023-07-20T22:36:13;1.90;;;1.60;;
22359;SDS011;11347;52.030;4.690;2023-07-20T22:38:39;3.17;;;1.90;;
22359;SDS011;11347;52.030;4.690;2023-07-20T22:41:04;3.80;;;2.00;;
22359;SDS011;11347;52.030;4.690;2023-07-20T22:43:30;3.60;;;1.80;;
22359;SDS011;11347;52.030;4.690;2023-07-20T22:45:55;2.70;;;1.63;;
22359;SDS011;11347;52.030;4.690;2023-07-20T22:48:21;3.00;;;1.60;;
22359;SDS011;11347;52.030;4.690;2023-07-20T22:50:48;2.27;;;1.80;;
22359;SDS011;11347;52.030;4.690;2023-07-20T22:53:14;5.00;;;1.87;;
22359;SDS011;11347;52.030;4.690;2023-07-20T22:55:43;2.33;;;1.70;;
22359;SDS011;11347;52.030;4.690;2023-07-20T22:58:08;2.60;;;1.93;;
22359;SDS011;11347;52.030;4.690;2023-07-20T23:00:34;2.90;;;2.00;;
22359;SDS011;11347;52.030;4.690;2023-07-20T23:02:59;3.97;;;1.80;;
22359;SDS011;11347;52.030;4.690;2023-07-20T23:05:25;5.83;;;2.07;;
22359;SDS011;11347;52.030;4.690;2023-07-20T23:07:51;2.90;;;1.83;;
22359;SDS011;11347;52.030;4.690;2023-07-20T23:10:17;2.23;;;1.90;;
22359;SDS011;11347;52.030;4.690;2023-07-20T23:12:43;5.60;;;2.00;;
22359;SDS011;11347;52.030;4.690;2023-07-20T23:15:10;3.17;;;1.70;;
22359;SDS011;11347;52.030;4.690;2023-07-20T23:17:38;2.40;;;1.87;;
22359;SDS011;11347;52.030;4.690;2023-07-20T23:20:04;2.00;;;1.50;;
22359;SDS011;11347;52.030;4.690;2023-07-20T23:22:34;4.10;;;2.00;;
22359;SDS011;11347;52.030;4.690;2023-07-20T23:24:59;3.77;;;1.90;;